Putnamville, IN

12:32 PM EDT on October 01, 2014 (GMT -0400)
Monroe County | Change Station
CLOSE
Current Station
Airport
Location: Bloomington,
Elevation: 846 ft
Nearby Weather Stations

Elev 846 ft 39.15 °N, 86.62 °W | Updated 39 minutes ago

Clear
Clear
66 °F
Feels Like 66 °F
N
7
Wind Variable Wind from ESE

Today
High -- | Low -- °F
--% Chance of Precip.
Yesterday
High -- | Low -- °F
Precip. -- in
7:43 AM 7:29 PM
Waxing Crescent, 49% visible
Pressure 30.00 in
Visibility 10.0 miles
Clouds Clear
Dew Point 56 °F
Humidity 70%
Rainfall 0.00 in
Snow Depth Not available.
UV 5 out of 12
Pollen 4.10 out of 12
Air Quality Not available.
Flu Activity Not available.
METAR KBMG 011553Z 11006KT 10SM CLR 19/13 A3001 RMK AO2 SLP159 T01890133

More Conditions Fewer Conditions

Pressure 30.00 in
Visibility 10.0 miles
Clouds Clear
Dew Point 56 °F
Humidity 70%
Rainfall 0.00 in
Snow Depth Not available.
UV 5 out of 12
Pollen 4.10 out of 12
Air Quality Not available.
Flu Activity Not available.
METAR KBMG 011553Z 11006KT 10SM CLR 19/13 A3001 RMK AO2 SLP159 T01890133

More Conditions Fewer Conditions

10-Day Weather Forecast

Almanac

Astronomy

Oct. 01, 2014 Rise Set
Actual Time 7:43 AM EDT 7:29 PM EDT
Civil Twilight 7:16 AM EDT 7:56 PM EDT
Nautical Twilight 6:45 AM EDT 8:27 PM EDT
Astronomical Twilight 6:14 AM EDT 8:59 PM EDT
Moon 2:43 PM EDT 12:02 AM EDT
Length of Visible Light 12h 39m
Length of Day
11h 46m
Tomorrow will be 2m 34s shorter.
Waxing Crescent, 49% of the Moon is Illuminated
Today
Waxing Crescent
Oct 1
First Quarter
Oct 8
Full
Oct 15
Last Quarter
Oct 23
New

Today's Extremes

State Highs State Lows

Community

WunderPhotos

Upload Photos

1,757,981 photos uploaded!

WunderBlogs® & News

By Dr. Jeff Masters
Director of Meteorology, Weather Underground
By Kari Strenfel
Meteorologist, Weather Underground
By Christopher C. Burt
Weather Historian, Weather Underground
October 1, 2014
October 1, 2014
October 1, 2014

Nearby

Snow Depth

Station Depth Elevation
No new snow has been reported.

Earthquake Activity

City Distance Mag. Time & Date
No recent earthquake activity has been reported nearby.
Minimum magnitude displayed is 2.5.

Coastal Water Temperatures

Place Temperature
No Stations Reporting

Nearby Weather Stations